^^
Station Historical Data
Daily Summary for April 28, 2019 Units:  English    Metric   Both
« Previous Day
Next Day »
Daily Weekly Monthly Yearly Custom
  High: Low: Average:
Temperature: 37.8 °F 32.2 °F 34.9 °F
Dew Point: 35.5 °F 30.5 °F 32.9 °F
Humidity: 96% 79% 92%
Wind Speed: 30.0mph 1.0mph 13mph
Wind Gust: 37.0mph - -
Wind- - East
Pressure: 29.86 in 29.69 in -
Precipitation: 0.66 in    
Historical Graphs
 
 
Tabular Data for April 28, 2019
Time Temperature Dew Point Pressure Wind Wind Speed Wind Gust Humidity Rainfall Rate (Hourly) solar Conditions
00:04 36.0 °F 31.9 °F 29.85 in East 7.0 mph 9.0 mph 85% 0.00 in 0.00 W/m2
00:09 35.8 °F 31.7 °F 29.85 in East 7.0 mph 9.0 mph 85% 0.00 in 0.00 W/m2
00:14 35.5 °F 31.4 °F 29.85 in East 6.0 mph 8.0 mph 85% 0.00 in 0.00 W/m2
00:19 35.4 °F 31.6 °F 29.86 in ESE 7.0 mph 9.0 mph 86% 0.00 in 0.00 W/m2
00:24 35.4 °F 31.9 °F 29.86 in ESE 7.0 mph 10.0 mph 87% 0.00 in 0.00 W/m2
00:29 35.4 °F 31.9 °F 29.85 in East 8.0 mph 10.0 mph 87% 0.00 in 0.00 W/m2
00:34 35.5 °F 32.0 °F 29.85 in ESE 4.0 mph 10.0 mph 87% 0.00 in 0.00 W/m2
00:39 35.7 °F 32.2 °F 29.85 in ESE 8.0 mph 10.0 mph 87% 0.00 in 0.00 W/m2
00:44 35.7 °F 32.2 °F 29.84 in ESE 8.0 mph 10.0 mph 87% 0.00 in 0.00 W/m2
00:49 35.9 °F 32.4 °F 29.84 in ESE 7.0 mph 10.0 mph 87% 0.00 in 0.00 W/m2
00:54 36.0 °F 32.5 °F 29.84 in ESE 10.0 mph 11.0 mph 87% 0.00 in 0.00 W/m2
00:59 36.2 °F 32.7 °F 29.84 in ESE 8.0 mph 11.0 mph 87% 0.00 in 0.00 W/m2
01:04 36.5 °F 33.0 °F 29.84 in ESE 7.0 mph 13.0 mph 87% 0.00 in 0.00 W/m2
01:09 36.6 °F 33.1 °F 29.84 in ESE 9.0 mph 14.0 mph 87% 0.00 in 0.00 W/m2
01:14 36.6 °F 34.5 °F 29.84 in ESE 9.0 mph 14.0 mph 92% 0.00 in 0.00 W/m2
01:19 36.6 °F 33.1 °F 29.84 in SE 6.0 mph 11.0 mph 87% 0.00 in 0.00 W/m2
01:24 36.5 °F 32.7 °F 29.85 in SE 5.0 mph 11.0 mph 86% 0.00 in 0.00 W/m2
01:29 36.3 °F 32.8 °F 29.86 in SE 6.0 mph 10.0 mph 87% 0.00 in 0.00 W/m2
01:34 36.2 °F 32.7 °F 29.86 in SE 5.0 mph 10.0 mph 87% 0.00 in 0.00 W/m2
01:39 36.0 °F 32.5 °F 29.86 in SE 8.0 mph 9.0 mph 87% 0.00 in 0.00 W/m2
01:44 35.8 °F 32.3 °F 29.86 in SE 6.0 mph 9.0 mph 87% 0.00 in 0.00 W/m2
01:49 35.7 °F 32.5 °F 29.86 in ESE 4.0 mph 8.0 mph 88% 0.00 in 0.00 W/m2
01:54 35.6 °F 32.4 °F 29.86 in ESE 7.0 mph 8.0 mph 88% 0.00 in 0.00 W/m2
01:59 35.6 °F 32.4 °F 29.86 in ESE 8.0 mph 9.0 mph 88% 0.00 in 0.00 W/m2
02:04 35.7 °F 32.5 °F 29.86 in ESE 7.0 mph 9.0 mph 88% 0.00 in 0.00 W/m2
02:09 35.7 °F 32.8 °F 29.86 in ESE 7.0 mph 9.0 mph 89% 0.00 in 0.00 W/m2
02:14 35.8 °F 32.9 °F 29.85 in East 7.0 mph 10.0 mph 89% 0.00 in 0.00 W/m2
02:19 36.0 °F 33.1 °F 29.85 in SE 8.0 mph 10.0 mph 89% 0.00 in 0.00 W/m2
02:24 36.1 °F 33.2 °F 29.85 in SE 9.0 mph 10.0 mph 89% 0.00 in 0.00 W/m2
02:29 36.2 °F 33.0 °F 29.86 in SE 7.0 mph 10.0 mph 88% 0.00 in 0.00 W/m2
02:34 36.2 °F 33.3 °F 29.86 in SE 7.0 mph 10.0 mph 89% 0.00 in 0.00 W/m2
02:39 36.4 °F 33.5 °F 29.85 in SE 4.0 mph 10.0 mph 89% 0.00 in 0.00 W/m2
02:44 36.6 °F 33.7 °F 29.85 in ESE 4.0 mph 10.0 mph 89% 0.00 in 0.00 W/m2
02:49 36.8 °F 33.6 °F 29.85 in SE 4.0 mph 10.0 mph 88% 0.00 in 0.00 W/m2
02:54 36.8 °F 33.6 °F 29.84 in ESE 8.0 mph 9.0 mph 88% 0.00 in 0.00 W/m2
02:59 36.8 °F 33.6 °F 29.84 in ESE 7.0 mph 10.0 mph 88% 0.00 in 0.00 W/m2
03:04 36.8 °F 33.6 °F 29.83 in ESE 8.0 mph 13.0 mph 88% 0.00 in 0.00 W/m2
03:09 37.1 °F 33.9 °F 29.84 in SE 6.0 mph 13.0 mph 88% 0.00 in 0.00 W/m2
03:14 37.1 °F 33.9 °F 29.84 in SE 8.0 mph 12.0 mph 88% 0.00 in 0.00 W/m2
03:19 37.1 °F 33.9 °F 29.83 in ESE 9.0 mph 12.0 mph 88% 0.00 in 0.00 W/m2
03:24 37.0 °F 33.8 °F 29.83 in East 11.0 mph 12.0 mph 88% 0.00 in 0.00 W/m2
03:29 37.0 °F 33.8 °F 29.83 in East 11.0 mph 14.0 mph 88% 0.00 in 0.00 W/m2
03:34 37.0 °F 33.8 °F 29.83 in ESE 11.0 mph 14.0 mph 88% 0.00 in 0.00 W/m2
03:39 37.0 °F 33.8 °F 29.83 in East 6.0 mph 14.0 mph 88% 0.00 in 0.00 W/m2
03:44 36.9 °F 33.7 °F 29.83 in ESE 11.0 mph 14.0 mph 88% 0.00 in 0.00 W/m2
03:49 37.0 °F 33.8 °F 29.83 in ESE 9.0 mph 14.0 mph 88% 0.00 in 0.00 W/m2
03:54 37.1 °F 33.9 °F 29.83 in East 8.0 mph 15.0 mph 88% 0.00 in 0.00 W/m2
03:59 37.1 °F 33.6 °F 29.83 in ESE 12.0 mph 15.0 mph 87% 0.00 in 0.00 W/m2
04:04 37.0 °F 33.5 °F 29.83 in East 15.0 mph 15.0 mph 87% 0.00 in 0.00 W/m2
04:09 37.0 °F 33.2 °F 29.83 in ESE 13.0 mph 17.0 mph 86% 0.00 in 0.00 W/m2
04:14 37.0 °F 33.2 °F 29.83 in ESE 11.0 mph 17.0 mph 86% 0.00 in 0.00 W/m2
04:19 37.1 °F 33.3 °F 29.82 in East 8.0 mph 19.0 mph 86% 0.00 in 0.00 W/m2
04:24 37.2 °F 33.1 °F 29.82 in East 16.0 mph 23.0 mph 85% 0.00 in 0.00 W/m2
04:29 37.3 °F 33.2 °F 29.81 in ESE 15.0 mph 23.0 mph 85% 0.00 in 0.00 W/m2
04:34 37.4 °F 33.0 °F 29.81 in East 11.0 mph 22.0 mph 84% 0.00 in 0.00 W/m2
04:39 37.5 °F 33.1 °F 29.81 in ESE 17.0 mph 22.0 mph 84% 0.00 in 0.00 W/m2
04:44 37.5 °F 32.8 °F 29.81 in East 19.0 mph 23.0 mph 83% 0.00 in 0.00 W/m2
04:49 37.7 °F 32.7 °F 29.81 in SE 15.0 mph 24.0 mph 82% 0.00 in 0.00 W/m2
04:54 37.8 °F 32.5 °F 29.82 in ESE 15.0 mph 24.0 mph 81% 0.00 in 0.00 W/m2
04:59 37.8 °F 32.5 °F 29.82 in SE 19.0 mph 22.0 mph 81% 0.00 in 0.00 W/m2
05:04 37.7 °F 32.1 °F 29.82 in SE 11.0 mph 22.0 mph 80% 0.00 in 0.00 W/m2
05:09 37.7 °F 32.1 °F 29.82 in SE 14.0 mph 22.0 mph 80% 0.00 in 0.00 W/m2
05:14 37.6 °F 32.0 °F 29.82 in SSE 11.0 mph 22.0 mph 80% 0.00 in 0.00 W/m2
05:19 37.6 °F 32.0 °F 29.82 in SE 13.0 mph 21.0 mph 80% 0.00 in 0.00 W/m2
05:24 37.6 °F 32.0 °F 29.83 in SE 9.0 mph 19.0 mph 80% 0.00 in 0.00 W/m2
05:29 37.5 °F 31.9 °F 29.84 in SE 13.0 mph 17.0 mph 80% 0.00 in 0.00 W/m2
05:34 37.7 °F 31.8 °F 29.84 in SE 14.0 mph 17.0 mph 79% 0.00 in 0.00 W/m2
05:39 37.6 °F 31.7 °F 29.84 in SE 16.0 mph 23.0 mph 79% 0.00 in 0.00 W/m2
05:44 37.1 °F 31.8 °F 29.83 in SSE 16.0 mph 26.0 mph 81% 0.00 in 0.00 W/m2
05:49 36.6 °F 31.9 °F 29.83 in SE 17.0 mph 26.0 mph 83% 0.00 in 0.00 W/m2
05:54 36.3 °F 32.2 °F 29.83 in SE 13.0 mph 25.0 mph 85% 0.00 in 0.00 W/m2
05:59 36.1 °F 32.3 °F 29.83 in SE 13.0 mph 22.0 mph 86% 0.00 in 0.00 W/m2
06:04 35.9 °F 32.1 °F 29.82 in SSE 19.0 mph 23.0 mph 86% 0.00 in 0.00 W/m2
06:09 35.8 °F 32.3 °F 29.82 in SE 14.0 mph 23.0 mph 87% 0.00 in 0.00 W/m2
06:14 35.7 °F 32.5 °F 29.82 in SE 16.0 mph 23.0 mph 88% 0.01 in 0.00 W/m2
06:19 35.7 °F 32.5 °F 29.82 in SE 12.0 mph 22.0 mph 88% 0.01 in 0.00 W/m2
06:24 35.7 °F 32.5 °F 29.83 in SE 11.0 mph 22.0 mph 88% 0.01 in 0.00 W/m2
06:29 35.6 °F 32.4 °F 29.82 in East 16.0 mph 22.0 mph 88% 0.01 in 0.00 W/m2
06:34 35.4 °F 32.2 °F 29.82 in SE 14.0 mph 22.0 mph 88% 0.01 in 0.00 W/m2
06:39 35.2 °F 32.3 °F 29.82 in SE 16.0 mph 23.0 mph 89% 0.01 in 0.00 W/m2
06:44 35.0 °F 32.1 °F 29.82 in SE 13.0 mph 23.0 mph 89% 0.01 in 0.00 W/m2
06:49 34.5 °F 31.9 °F 29.82 in SE 11.0 mph 22.0 mph 90% 0.02 in 0.00 W/m2
06:54 34.2 °F 31.6 °F 29.82 in ESE 13.0 mph 23.0 mph 90% 0.02 in 0.00 W/m2
06:59 33.8 °F 31.2 °F 29.82 in ESE 9.0 mph 23.0 mph 90% 0.02 in 0.00 W/m2
07:04 33.5 °F 31.2 °F 29.82 in ESE 12.0 mph 23.0 mph 91% 0.02 in 0.00 W/m2
07:09 33.2 °F 30.9 °F 29.82 in SE 13.0 mph 23.0 mph 91% 0.02 in 0.00 W/m2
07:14 33.0 °F 30.9 °F 29.82 in SE 15.0 mph 20.0 mph 92% 0.01 in 5.00 W/m2
07:19 32.9 °F 30.8 °F 29.82 in ESE 14.0 mph 20.0 mph 92% 0.01 in 5.00 W/m2
07:24 32.7 °F 30.6 °F 29.82 in East 18.0 mph 19.0 mph 92% 0.01 in 9.00 W/m2
07:29 32.6 °F 30.5 °F 29.82 in ESE 12.0 mph 19.0 mph 92% 0.01 in 11.00 W/m2
07:34 32.5 °F 30.7 °F 29.82 in East 13.0 mph 18.0 mph 93% 0.01 in 9.00 W/m2
07:39 32.4 °F 30.6 °F 29.82 in ESE 15.0 mph 18.0 mph 93% 0.01 in 11.00 W/m2
07:44 32.4 °F 30.6 °F 29.83 in East 11.0 mph 20.0 mph 93% 0.01 in 11.00 W/m2
07:49 32.4 °F 30.6 °F 29.83 in East 8.0 mph 20.0 mph 93% 0.00 in 9.00 W/m2
07:54 32.4 °F 30.6 °F 29.83 in ESE 11.0 mph 18.0 mph 93% 0.00 in 11.00 W/m2
07:59 32.3 °F 30.5 °F 29.82 in ESE 9.0 mph 18.0 mph 93% 0.00 in 11.00 W/m2
08:04 32.3 °F 30.5 °F 29.82 in ESE 12.0 mph 20.0 mph 93% 0.00 in 9.00 W/m2
08:09 32.3 °F 30.8 °F 29.82 in East 17.0 mph 20.0 mph 94% 0.00 in 12.00 W/m2
08:14 32.3 °F 30.8 °F 29.82 in ESE 12.0 mph 22.0 mph 94% 0.00 in 23.00 W/m2
08:19 32.3 °F 30.8 °F 29.82 in ESE 19.0 mph 24.0 mph 94% 0.00 in 19.00 W/m2
08:24 32.2 °F 30.7 °F 29.81 in ESE 16.0 mph 24.0 mph 94% 0.00 in 21.00 W/m2
08:29 32.2 °F 30.7 °F 29.81 in East 16.0 mph 25.0 mph 94% 0.00 in 23.00 W/m2
08:34 32.2 °F 30.7 °F 29.81 in ESE 13.0 mph 25.0 mph 94% 0.00 in 21.00 W/m2
08:39 32.2 °F 30.7 °F 29.81 in ESE 14.0 mph 26.0 mph 94% 0.00 in 26.00 W/m2
08:44 32.2 °F 30.7 °F 29.80 in ESE 16.0 mph 26.0 mph 94% 0.00 in 30.00 W/m2
08:49 32.2 °F 30.7 °F 29.80 in East 18.0 mph 26.0 mph 94% 0.00 in 37.00 W/m2
08:54 32.3 °F 30.8 °F 29.79 in ESE 16.0 mph 28.0 mph 94% 0.00 in 53.00 W/m2
08:59 32.3 °F 30.8 °F 29.79 in East 16.0 mph 29.0 mph 94% 0.00 in 42.00 W/m2
09:04 32.3 °F 30.8 °F 29.79 in East 15.0 mph 32.0 mph 94% 0.00 in 44.00 W/m2
09:09 32.3 °F 30.8 °F 29.79 in ESE 21.0 mph 32.0 mph 94% 0.00 in 42.00 W/m2
09:14 32.3 °F 30.8 °F 29.78 in East 14.0 mph 30.0 mph 94% 0.00 in 40.00 W/m2
09:19 32.3 °F 30.8 °F 29.78 in East 24.0 mph 30.0 mph 94% 0.00 in 63.00 W/m2
09:24 32.3 °F 30.8 °F 29.78 in ESE 18.0 mph 29.0 mph 94% 0.00 in 81.00 W/m2
09:29 32.4 °F 30.9 °F 29.78 in East 24.0 mph 33.0 mph 94% 0.00 in 77.00 W/m2
09:34 32.4 °F 30.9 °F 29.77 in ESE 23.0 mph 33.0 mph 94% 0.00 in 70.00 W/m2
09:39 32.4 °F 30.9 °F 29.77 in ENE 27.0 mph 34.0 mph 94% 0.00 in 70.00 W/m2
09:44 32.4 °F 31.1 °F 29.77 in ENE 19.0 mph 34.0 mph 95% 0.00 in 74.00 W/m2
09:49 32.4 °F 31.1 °F 29.77 in East 24.0 mph 37.0 mph 95% 0.00 in 62.00 W/m2
09:54 32.4 °F 31.1 °F 29.77 in East 15.0 mph 37.0 mph 95% 0.00 in 65.00 W/m2
09:59 32.4 °F 31.1 °F 29.76 in East 23.0 mph 32.0 mph 95% 0.00 in 77.00 W/m2
10:04 32.4 °F 31.1 °F 29.76 in ESE 29.0 mph 34.0 mph 95% 0.00 in 76.00 W/m2
10:09 32.5 °F 31.2 °F 29.76 in East 17.0 mph 36.0 mph 95% 0.00 in 76.00 W/m2
10:14 32.5 °F 31.2 °F 29.76 in East 24.0 mph 36.0 mph 95% 0.00 in 95.00 W/m2
10:19 32.6 °F 31.3 °F 29.76 in East 23.0 mph 32.0 mph 95% 0.00 in 105.00 W/m2
10:24 32.6 °F 31.3 °F 29.76 in East 29.0 mph 34.0 mph 95% 0.00 in 95.00 W/m2
10:29 32.6 °F 31.3 °F 29.76 in East 21.0 mph 34.0 mph 95% 0.00 in 104.00 W/m2
10:34 32.7 °F 31.4 °F 29.75 in East 30.0 mph 33.0 mph 95% 0.00 in 93.00 W/m2
10:39 32.8 °F 31.5 °F 29.75 in East 19.0 mph 35.0 mph 95% 0.00 in 83.00 W/m2
10:44 32.8 °F 31.5 °F 29.75 in ESE 22.0 mph 35.0 mph 95% 0.00 in 56.00 W/m2
10:49 32.8 °F 31.5 °F 29.75 in East 28.0 mph 34.0 mph 95% 0.01 in 51.00 W/m2
10:54 32.8 °F 31.5 °F 29.75 in ENE 18.0 mph 34.0 mph 95% 0.01 in 47.00 W/m2
10:59 32.8 °F 31.5 °F 29.75 in ESE 18.0 mph 33.0 mph 95% 0.01 in 54.00 W/m2
11:04 32.8 °F 31.5 °F 29.75 in ESE 20.0 mph 33.0 mph 95% 0.01 in 67.00 W/m2
11:09 32.8 °F 31.5 °F 29.75 in ESE 22.0 mph 33.0 mph 95% 0.01 in 69.00 W/m2
11:14 32.8 °F 31.5 °F 29.74 in ESE 14.0 mph 34.0 mph 95% 0.01 in 77.00 W/m2
11:19 32.8 °F 31.5 °F 29.74 in East 14.0 mph 34.0 mph 95% 0.01 in 91.00 W/m2
11:24 32.8 °F 31.5 °F 29.74 in East 22.0 mph 29.0 mph 95% 0.01 in 100.00 W/m2
11:29 32.9 °F 31.6 °F 29.73 in East 26.0 mph 33.0 mph 95% 0.01 in 102.00 W/m2
11:34 32.9 °F 31.6 °F 29.74 in ESE 22.0 mph 34.0 mph 95% 0.02 in 93.00 W/m2
11:39 32.9 °F 31.6 °F 29.74 in ESE 23.0 mph 34.0 mph 95% 0.02 in 90.00 W/m2
11:44 32.9 °F 31.6 °F 29.74 in East 19.0 mph 31.0 mph 95% 0.03 in 93.00 W/m2
11:49 33.0 °F 31.7 °F 29.75 in East 23.0 mph 31.0 mph 95% 0.03 in 91.00 W/m2
11:54 33.0 °F 31.7 °F 29.75 in East 14.0 mph 32.0 mph 95% 0.04 in 97.00 W/m2
11:59 33.1 °F 31.8 °F 29.74 in East 21.0 mph 32.0 mph 95% 0.05 in 104.00 W/m2
12:04 33.1 °F 31.8 °F 29.75 in ESE 17.0 mph 27.0 mph 95% 0.05 in 98.00 W/m2
12:09 33.1 °F 31.8 °F 29.74 in East 22.0 mph 30.0 mph 95% 0.06 in 116.00 W/m2
12:14 33.2 °F 31.9 °F 29.75 in ENE 18.0 mph 30.0 mph 95% 0.07 in 121.00 W/m2
12:19 33.3 °F 32.0 °F 29.74 in East 11.0 mph 30.0 mph 95% 0.08 in 116.00 W/m2
12:24 33.4 °F 32.1 °F 29.74 in East 16.0 mph 30.0 mph 95% 0.09 in 114.00 W/m2
12:29 33.5 °F 32.2 °F 29.74 in ESE 17.0 mph 28.0 mph 95% 0.09 in 121.00 W/m2
12:34 33.6 °F 32.3 °F 29.74 in ESE 24.0 mph 28.0 mph 95% 0.10 in 128.00 W/m2
12:39 33.7 °F 32.4 °F 29.74 in East 18.0 mph 26.0 mph 95% 0.11 in 130.00 W/m2
12:44 33.8 °F 32.5 °F 29.74 in East 16.0 mph 27.0 mph 95% 0.11 in 134.00 W/m2
12:49 34.0 °F 32.7 °F 29.73 in East 17.0 mph 28.0 mph 95% 0.11 in 137.00 W/m2
12:54 34.1 °F 32.8 °F 29.73 in East 15.0 mph 28.0 mph 95% 0.11 in 118.00 W/m2
12:59 34.2 °F 32.9 °F 29.73 in East 16.0 mph 28.0 mph 95% 0.11 in 130.00 W/m2
13:04 34.4 °F 33.1 °F 29.73 in ESE 16.0 mph 29.0 mph 95% 0.12 in 139.00 W/m2
13:09 34.4 °F 33.1 °F 29.73 in ESE 14.0 mph 29.0 mph 95% 0.12 in 137.00 W/m2
13:14 34.6 °F 33.3 °F 29.73 in East 19.0 mph 33.0 mph 95% 0.12 in 125.00 W/m2
13:19 34.6 °F 33.3 °F 29.73 in ESE 15.0 mph 33.0 mph 95% 0.11 in 125.00 W/m2
13:24 34.8 °F 33.5 °F 29.73 in ESE 17.0 mph 28.0 mph 95% 0.12 in 118.00 W/m2
13:29 34.8 °F 33.5 °F 29.72 in ESE 18.0 mph 28.0 mph 95% 0.11 in 93.00 W/m2
13:34 35.0 °F 33.7 °F 29.72 in ESE 18.0 mph 28.0 mph 95% 0.11 in 120.00 W/m2
13:39 35.1 °F 33.8 °F 29.72 in ESE 18.0 mph 28.0 mph 95% 0.11 in 144.00 W/m2
13:44 35.2 °F 33.9 °F 29.72 in ESE 18.0 mph 28.0 mph 95% 0.11 in 142.00 W/m2
13:49 35.3 °F 34.0 °F 29.71 in ESE 17.0 mph 26.0 mph 95% 0.11 in 148.00 W/m2
13:54 35.3 °F 34.0 °F 29.71 in ESE 15.0 mph 28.0 mph 95% 0.11 in 130.00 W/m2
13:59 35.2 °F 33.9 °F 29.71 in ESE 14.0 mph 28.0 mph 95% 0.11 in 144.00 W/m2
14:04 35.3 °F 34.0 °F 29.70 in East 10.0 mph 26.0 mph 95% 0.10 in 121.00 W/m2
14:09 35.4 °F 34.4 °F 29.71 in ESE 19.0 mph 28.0 mph 96% 0.10 in 111.00 W/m2
14:14 35.5 °F 34.5 °F 29.70 in ESE 18.0 mph 28.0 mph 96% 0.10 in 105.00 W/m2
14:19 35.6 °F 34.6 °F 29.70 in ESE 18.0 mph 31.0 mph 96% 0.10 in 84.00 W/m2
14:24 35.6 °F 34.6 °F 29.70 in SE 17.0 mph 31.0 mph 96% 0.09 in 84.00 W/m2
14:29 35.6 °F 34.3 °F 29.70 in ESE 17.0 mph 27.0 mph 95% 0.09 in 62.00 W/m2
14:34 35.6 °F 34.3 °F 29.70 in East 19.0 mph 27.0 mph 95% 0.08 in 81.00 W/m2
14:39 35.7 °F 34.4 °F 29.69 in ESE 18.0 mph 28.0 mph 95% 0.08 in 81.00 W/m2
14:44 35.7 °F 34.4 °F 29.69 in ESE 26.0 mph 31.0 mph 95% 0.07 in 63.00 W/m2
14:49 35.7 °F 34.4 °F 29.69 in ESE 22.0 mph 32.0 mph 95% 0.07 in 63.00 W/m2
14:54 35.7 °F 34.4 °F 29.69 in ESE 14.0 mph 32.0 mph 95% 0.07 in 63.00 W/m2
14:59 35.6 °F 34.3 °F 29.70 in ESE 16.0 mph 31.0 mph 95% 0.06 in 62.00 W/m2
15:04 35.5 °F 34.2 °F 29.70 in ESE 15.0 mph 27.0 mph 95% 0.08 in 70.00 W/m2
15:09 35.5 °F 34.2 °F 29.70 in ESE 15.0 mph 26.0 mph 95% 0.07 in 62.00 W/m2
15:14 35.5 °F 34.2 °F 29.70 in ESE 25.0 mph 28.0 mph 95% 0.07 in 70.00 W/m2
15:19 35.6 °F 34.6 °F 29.70 in ESE 25.0 mph 30.0 mph 96% 0.08 in 67.00 W/m2
15:24 35.7 °F 34.4 °F 29.70 in ESE 14.0 mph 30.0 mph 95% 0.07 in 77.00 W/m2
15:29 35.6 °F 34.3 °F 29.70 in East 16.0 mph 30.0 mph 95% 0.08 in 86.00 W/m2
15:34 35.6 °F 34.3 °F 29.70 in ESE 21.0 mph 33.0 mph 95% 0.09 in 100.00 W/m2
15:39 35.5 °F 34.2 °F 29.70 in ESE 14.0 mph 33.0 mph 95% 0.10 in 97.00 W/m2
15:44 35.5 °F 34.2 °F 29.70 in East 15.0 mph 31.0 mph 95% 0.11 in 114.00 W/m2
15:49 35.5 °F 34.2 °F 29.70 in ESE 15.0 mph 30.0 mph 95% 0.11 in 130.00 W/m2
15:54 35.5 °F 34.2 °F 29.70 in East 19.0 mph 30.0 mph 95% 0.11 in 114.00 W/m2
15:59 35.5 °F 34.2 °F 29.70 in East 24.0 mph 29.0 mph 95% 0.11 in 93.00 W/m2
16:04 35.7 °F 34.4 °F 29.70 in ESE 12.0 mph 25.0 mph 95% 0.10 in 98.00 W/m2
16:09 35.7 °F 34.4 °F 29.70 in ESE 11.0 mph 26.0 mph 95% 0.09 in 83.00 W/m2
16:14 35.6 °F 34.3 °F 29.70 in ESE 16.0 mph 26.0 mph 95% 0.10 in 93.00 W/m2
16:19 35.6 °F 34.3 °F 29.70 in East 18.0 mph 26.0 mph 95% 0.10 in 100.00 W/m2
16:24 35.5 °F 34.2 °F 29.70 in East 19.0 mph 26.0 mph 95% 0.11 in 97.00 W/m2
16:29 35.3 °F 34.0 °F 29.70 in ESE 16.0 mph 27.0 mph 95% 0.11 in 105.00 W/m2
16:34 35.3 °F 34.0 °F 29.70 in ESE 18.0 mph 27.0 mph 95% 0.09 in 104.00 W/m2
16:39 35.4 °F 34.1 °F 29.70 in ESE 18.0 mph 26.0 mph 95% 0.09 in 97.00 W/m2
16:44 35.5 °F 34.2 °F 29.70 in ESE 12.0 mph 25.0 mph 95% 0.09 in 93.00 W/m2
16:49 35.4 °F 34.1 °F 29.70 in East 14.0 mph 25.0 mph 95% 0.08 in 88.00 W/m2
16:54 35.5 °F 34.2 °F 29.70 in East 11.0 mph 21.0 mph 95% 0.08 in 83.00 W/m2
16:59 35.7 °F 34.4 °F 29.70 in ESE 16.0 mph 24.0 mph 95% 0.08 in 79.00 W/m2
17:04 36.0 °F 34.7 °F 29.70 in East 14.0 mph 24.0 mph 95% 0.08 in 77.00 W/m2
17:09 36.2 °F 34.9 °F 29.70 in East 13.0 mph 23.0 mph 95% 0.08 in 60.00 W/m2
17:14 36.0 °F 34.7 °F 29.70 in SE 12.0 mph 27.0 mph 95% 0.08 in 58.00 W/m2
17:19 35.8 °F 34.5 °F 29.70 in ESE 18.0 mph 27.0 mph 95% 0.07 in 60.00 W/m2
17:24 35.8 °F 34.5 °F 29.70 in ESE 16.0 mph 23.0 mph 95% 0.07 in 56.00 W/m2
17:29 36.0 °F 34.7 °F 29.70 in SE 15.0 mph 23.0 mph 95% 0.07 in 58.00 W/m2
17:34 36.1 °F 34.8 °F 29.70 in ESE 18.0 mph 23.0 mph 95% 0.08 in 67.00 W/m2
17:39 36.1 °F 34.8 °F 29.70 in ESE 15.0 mph 23.0 mph 95% 0.07 in 107.00 W/m2
17:44 36.3 °F 35.0 °F 29.69 in ESE 22.0 mph 23.0 mph 95% 0.07 in 146.00 W/m2
17:49 36.5 °F 35.5 °F 29.70 in ESE 8.0 mph 23.0 mph 96% 0.07 in 79.00 W/m2
17:54 36.5 °F 35.2 °F 29.70 in East 16.0 mph 23.0 mph 95% 0.07 in 51.00 W/m2
17:59 36.3 °F 35.0 °F 29.71 in SE 13.0 mph 22.0 mph 95% 0.06 in 37.00 W/m2
18:04 36.2 °F 34.9 °F 29.70 in ESE 15.0 mph 20.0 mph 95% 0.06 in 39.00 W/m2
18:09 36.3 °F 35.0 °F 29.71 in ESE 18.0 mph 21.0 mph 95% 0.06 in 35.00 W/m2
18:14 36.3 °F 35.0 °F 29.71 in East 17.0 mph 22.0 mph 95% 0.06 in 33.00 W/m2
18:19 36.2 °F 34.9 °F 29.71 in ESE 13.0 mph 22.0 mph 95% 0.06 in 33.00 W/m2
18:24 36.2 °F 34.9 °F 29.71 in ESE 9.0 mph 22.0 mph 95% 0.06 in 28.00 W/m2
18:29 36.2 °F 34.9 °F 29.70 in East 11.0 mph 22.0 mph 95% 0.06 in 28.00 W/m2
18:34 36.0 °F 34.7 °F 29.71 in East 15.0 mph 23.0 mph 95% 0.05 in 21.00 W/m2
18:39 35.9 °F 34.6 °F 29.71 in ENE 12.0 mph 23.0 mph 95% 0.05 in 19.00 W/m2
18:44 35.7 °F 34.4 °F 29.71 in East 10.0 mph 19.0 mph 95% 0.05 in 21.00 W/m2
18:49 35.6 °F 34.3 °F 29.71 in ENE 11.0 mph 21.0 mph 95% 0.05 in 19.00 W/m2
18:54 35.5 °F 34.2 °F 29.71 in East 15.0 mph 22.0 mph 95% 0.04 in 16.00 W/m2
18:59 35.3 °F 34.0 °F 29.71 in East 10.0 mph 22.0 mph 95% 0.04 in 16.00 W/m2
19:04 35.4 °F 34.1 °F 29.71 in East 14.0 mph 18.0 mph 95% 0.04 in 19.00 W/m2
19:09 35.6 °F 34.3 °F 29.71 in East 14.0 mph 18.0 mph 95% 0.03 in 30.00 W/m2
19:14 35.8 °F 34.5 °F 29.71 in East 15.0 mph 22.0 mph 95% 0.02 in 30.00 W/m2
19:19 35.5 °F 34.2 °F 29.71 in ENE 10.0 mph 22.0 mph 95% 0.02 in 35.00 W/m2
19:24 34.5 °F 33.2 °F 29.71 in NE 16.0 mph 19.0 mph 95% 0.02 in 37.00 W/m2
19:29 34.0 °F 32.7 °F 29.71 in ENE 14.0 mph 22.0 mph 95% 0.01 in 56.00 W/m2
19:34 33.8 °F 32.5 °F 29.71 in East 10.0 mph 22.0 mph 95% 0.01 in 127.00 W/m2
19:39 33.8 °F 32.5 °F 29.71 in East 15.0 mph 22.0 mph 95% 0.01 in 179.00 W/m2
19:44 34.3 °F 33.0 °F 29.71 in ENE 11.0 mph 22.0 mph 95% 0.00 in 160.00 W/m2
19:49 34.6 °F 33.3 °F 29.72 in East 14.0 mph 18.0 mph 95% 0.00 in 135.00 W/m2
19:54 34.7 °F 33.4 °F 29.72 in ENE 13.0 mph 17.0 mph 95% 0.00 in 95.00 W/m2
19:59 34.7 °F 33.4 °F 29.72 in East 9.0 mph 20.0 mph 95% 0.00 in 56.00 W/m2
20:04 34.7 °F 33.7 °F 29.72 in ENE 10.0 mph 20.0 mph 96% 0.00 in 49.00 W/m2
20:09 34.7 °F 33.4 °F 29.72 in East 13.0 mph 17.0 mph 95% 0.00 in 40.00 W/m2
20:14 34.7 °F 33.4 °F 29.72 in ENE 12.0 mph 16.0 mph 95% 0.00 in 35.00 W/m2
20:19 34.7 °F 33.7 °F 29.72 in East 9.0 mph 15.0 mph 96% 0.00 in 28.00 W/m2
20:24 34.7 °F 33.7 °F 29.72 in East 10.0 mph 13.0 mph 96% 0.00 in 14.00 W/m2
20:29 34.7 °F 33.7 °F 29.72 in East 8.0 mph 14.0 mph 96% 0.00 in 14.00 W/m2
20:34 34.7 °F 33.4 °F 29.72 in East 7.0 mph 14.0 mph 95% 0.00 in 9.00 W/m2
20:39 34.7 °F 33.7 °F 29.73 in East 6.0 mph 12.0 mph 96% 0.00 in 7.00 W/m2
20:44 34.8 °F 33.8 °F 29.73 in East 14.0 mph 14.0 mph 96% 0.00 in 5.00 W/m2
20:49 34.8 °F 33.8 °F 29.73 in ENE 9.0 mph 14.0 mph 96% 0.00 in 0.00 W/m2
20:54 35.0 °F 34.0 °F 29.73 in ENE 8.0 mph 14.0 mph 96% 0.00 in 0.00 W/m2
20:59 35.0 °F 34.0 °F 29.74 in ENE 4.0 mph 13.0 mph 96% 0.00 in 0.00 W/m2
21:04 35.0 °F 34.0 °F 29.74 in ENE 4.0 mph 9.0 mph 96% 0.00 in 0.00 W/m2
21:09 35.0 °F 34.0 °F 29.75 in NE 6.0 mph 9.0 mph 96% 0.00 in 0.00 W/m2
21:14 35.0 °F 34.0 °F 29.75 in NE 5.0 mph 10.0 mph 96% 0.00 in 0.00 W/m2
21:19 35.0 °F 34.0 °F 29.75 in NE 4.0 mph 12.0 mph 96% 0.00 in 0.00 W/m2
21:24 35.0 °F 34.0 °F 29.75 in NE 9.0 mph 12.0 mph 96% 0.00 in 0.00 W/m2
21:29 35.0 °F 34.0 °F 29.75 in ENE 8.0 mph 11.0 mph 96% 0.00 in 0.00 W/m2
21:34 34.9 °F 33.9 °F 29.76 in NE 7.0 mph 11.0 mph 96% 0.00 in 0.00 W/m2
21:39 34.8 °F 33.8 °F 29.76 in ENE 9.0 mph 10.0 mph 96% 0.00 in 0.00 W/m2
21:44 34.8 °F 33.8 °F 29.76 in ENE 9.0 mph 12.0 mph 96% 0.00 in 0.00 W/m2
21:49 34.6 °F 33.3 °F 29.76 in NE 8.0 mph 12.0 mph 95% 0.00 in 0.00 W/m2
21:54 34.3 °F 33.3 °F 29.76 in ENE 7.0 mph 11.0 mph 96% 0.00 in 0.00 W/m2
21:59 34.1 °F 33.1 °F 29.76 in ENE 5.0 mph 10.0 mph 96% 0.00 in 0.00 W/m2
22:04 34.0 °F 32.7 °F 29.77 in ENE 4.0 mph 9.0 mph 95% 0.00 in 0.00 W/m2
22:09 33.9 °F 32.6 °F 29.77 in ENE 7.0 mph 8.0 mph 95% 0.00 in 0.00 W/m2
22:14 33.8 °F 32.8 °F 29.77 in ENE 7.0 mph 8.0 mph 96% 0.00 in 0.00 W/m2
22:19 33.9 °F 32.9 °F 29.78 in ENE 4.0 mph 8.0 mph 96% 0.00 in 0.00 W/m2
22:24 33.9 °F 32.9 °F 29.78 in ENE 5.0 mph 7.0 mph 96% 0.00 in 0.00 W/m2
22:29 33.8 °F 32.8 °F 29.78 in ENE 4.0 mph 6.0 mph 96% 0.00 in 0.00 W/m2
22:34 33.9 °F 32.9 °F 29.78 in ENE 4.0 mph 6.0 mph 96% 0.00 in 0.00 W/m2
22:39 34.1 °F 33.1 °F 29.78 in East 3.0 mph 6.0 mph 96% 0.00 in 0.00 W/m2
22:44 34.2 °F 33.2 °F 29.79 in East 3.0 mph 6.0 mph 96% 0.00 in 0.00 W/m2
22:49 34.4 °F 33.4 °F 29.79 in East 2.0 mph 6.0 mph 96% 0.00 in 0.00 W/m2
22:54 34.5 °F 33.5 °F 29.79 in ENE 4.0 mph 6.0 mph 96% 0.00 in 0.00 W/m2
22:59 34.7 °F 33.7 °F 29.79 in ENE 3.0 mph 5.0 mph 96% 0.00 in 0.00 W/m2
23:04 34.7 °F 33.7 °F 29.79 in ENE 5.0 mph 5.0 mph 96% 0.00 in 0.00 W/m2
23:09 34.7 °F 33.7 °F 29.79 in ENE 4.0 mph 5.0 mph 96% 0.00 in 0.00 W/m2
23:14 34.8 °F 33.8 °F 29.79 in ENE 4.0 mph 5.0 mph 96% 0.00 in 0.00 W/m2
23:19 34.8 °F 33.8 °F 29.79 in ENE 1.0 mph 5.0 mph 96% 0.00 in 0.00 W/m2
23:24 34.8 °F 33.8 °F 29.79 in NE 4.0 mph 5.0 mph 96% 0.00 in 0.00 W/m2
23:29 34.7 °F 33.7 °F 29.78 in NE 4.0 mph 7.0 mph 96% 0.00 in 0.00 W/m2
23:34 34.6 °F 33.6 °F 29.78 in NE 4.0 mph 7.0 mph 96% 0.00 in 0.00 W/m2
23:39 34.6 °F 33.6 °F 29.78 in NE 4.0 mph 6.0 mph 96% 0.00 in 0.00 W/m2
23:44 34.6 °F 33.6 °F 29.79 in NNE 2.0 mph 6.0 mph 96% 0.00 in 0.00 W/m2
23:49 34.6 °F 33.6 °F 29.79 in NNE 2.0 mph 6.0 mph 96% 0.00 in 0.00 W/m2
23:54 34.6 °F 33.6 °F 29.79 in NNE 2.0 mph 4.0 mph 96% 0.00 in 0.00 W/m2
23:59 34.6 °F 33.6 °F 29.79 in NNE 2.0 mph 4.0 mph 96% 0.00 in 0.00 W/m2
Bismarck, North Dakota, USA
Compliments of Weather Underground - 4 mb